createdAt,value
2022-12-18T00:00:14.116Z,100
2022-12-18T00:10:15.392Z,100
2022-12-18T00:20:14.797Z,100
2022-12-18T00:30:15.321Z,100
2022-12-18T00:40:15.647Z,100
2022-12-18T00:50:15.992Z,100
2022-12-18T01:00:16.465Z,100
2022-12-18T01:10:17.392Z,100
2022-12-18T01:20:17.550Z,100
2022-12-18T01:30:17.980Z,100
2022-12-18T01:40:18.031Z,100
2022-12-18T01:50:18.572Z,100
2022-12-18T02:00:18.734Z,100
2022-12-18T02:20:20.118Z,100
2022-12-18T02:30:20.495Z,100
2022-12-18T02:40:20.854Z,100
2022-12-18T02:50:21.276Z,100
2022-12-18T03:00:22.220Z,100
2022-12-18T03:10:22.293Z,100
2022-12-18T03:20:22.923Z,100
2022-12-18T03:30:23.199Z,100
2022-12-18T03:40:23.921Z,100
2022-12-18T03:50:24.873Z,100
2022-12-18T04:00:25.071Z,100
2022-12-18T04:10:26.050Z,100
2022-12-18T04:20:26.620Z,100
2022-12-18T04:30:27.564Z,100
2022-12-18T04:40:28.083Z,100
2022-12-18T05:00:29.275Z,100
2022-12-18T05:10:34.813Z,100
2022-12-18T05:20:30.852Z,100
2022-12-18T05:30:31.012Z,100
2022-12-18T05:40:31.854Z,100
2022-12-18T05:50:32.183Z,100
2022-12-18T06:00:33.027Z,100
2022-12-18T06:20:34.079Z,100
2022-12-18T06:30:33.981Z,100
2022-12-18T06:40:34.590Z,100
2022-12-18T06:50:34.616Z,100
2022-12-18T07:00:35.439Z,100
2022-12-18T07:10:35.435Z,100
2022-12-18T07:20:36.076Z,100
2022-12-18T07:30:36.885Z,100
2022-12-18T07:50:38.133Z,100
2022-12-18T08:10:39.415Z,100
2022-12-18T08:30:41.352Z,100
2022-12-18T08:50:41.692Z,100
2022-12-18T09:00:42.218Z,100
2022-12-18T09:10:43.458Z,100
2022-12-18T09:20:42.945Z,100
2022-12-18T09:30:44.047Z,100
2022-12-18T09:40:44.456Z,100
2022-12-18T09:50:44.666Z,100
2022-12-18T10:00:44.766Z,100
2022-12-18T10:10:45.213Z,100
2022-12-18T10:20:45.953Z,100
2022-12-18T10:30:46.553Z,100
2022-12-18T10:40:47.438Z,100
2022-12-18T10:51:10.169Z,100
2022-12-18T11:00:48.703Z,100
2022-12-18T11:10:49.552Z,100
2022-12-18T11:20:53.200Z,100
2022-12-18T11:30:50.897Z,100
2022-12-18T11:40:51.411Z,100
2022-12-18T11:50:52.372Z,100
2022-12-18T12:00:52.797Z,100
2022-12-18T12:41:00.716Z,100
2022-12-18T12:50:55.042Z,100
2022-12-18T13:10:55.648Z,100
2022-12-18T13:21:01.276Z,100
2022-12-18T13:30:57.354Z,100
2022-12-18T13:50:57.653Z,100
2022-12-18T14:00:58.404Z,100
2022-12-18T14:10:59.106Z,100
2022-12-18T14:20:59.913Z,100
2022-12-18T14:41:01.124Z,100
2022-12-18T14:51:01.602Z,100
2022-12-18T15:11:04.280Z,100
2022-12-18T15:21:03.826Z,100
2022-12-18T15:31:04.337Z,100
2022-12-18T15:51:05.030Z,100
2022-12-18T16:01:05.721Z,100
2022-12-18T16:11:06.343Z,100
2022-12-18T16:21:07.309Z,100
2022-12-18T16:41:07.931Z,100
2022-12-18T16:51:08.464Z,100
2022-12-18T17:11:08.903Z,100
2022-12-18T17:21:09.468Z,100
2022-12-18T17:31:10.327Z,100
2022-12-18T17:51:11.354Z,99
2022-12-18T18:01:11.615Z,99
2022-12-18T18:11:12.293Z,99
2022-12-18T19:31:18.817Z,93
2022-12-18T19:41:16.060Z,91
2022-12-18T20:01:17.305Z,90
2022-12-18T20:11:17.803Z,88
2022-12-18T20:51:20.635Z,86
2022-12-18T21:01:21.146Z,88
2022-12-18T21:11:21.123Z,87
2022-12-18T21:21:26.165Z,89
2022-12-18T21:31:21.825Z,91
2022-12-18T21:41:22.578Z,92
2022-12-18T22:01:23.598Z,95
2022-12-18T22:31:24.848Z,99
2022-12-18T22:41:25.836Z,100
2022-12-18T23:01:27.554Z,100
2022-12-18T23:11:28.169Z,100
2022-12-18T23:21:29.038Z,100
2022-12-18T23:31:29.519Z,100
2022-12-18T23:41:30.023Z,100
2022-12-18T23:51:30.147Z,100
